Payson Airport

About
Name: Payson Airport
Identifier:  PJB/KPAN
Owner:  Town of Payson
Public/Private:  Public
Local Time:  22. Sep 13:58 MST
Description: Payson Airport is a public airport located 1 mile west of the central business district of Payson, a town in Gila County, Arizona, United States. The airport covers 80 acres and has one runway and one helipad. It is mostly used for general aviation, and is host to a number of fire-fighting aircraft during the summer fire season.
Source: Wikipedia
Location
Runways
Identifier Length (m/ft) Surface
6/24 5,504/5,504 Asphalt
Statistics
Flights per Day:
0 flights
Distance: 399km (248mi)
Flights delayed:
66% (0 flights per day delayed)
Delay Average: 26 minutes
Current Weather
 26 C (Humidity: 9%)
  0kt from variable
  16km (10 mi.)
 
 METAR KPAN 222035Z AUTO VRB04G12KT 10SM CLR 26/M08 A3018 RMK AO2

Current Delays

Departures
N/A
Arrivals
N/A

Destinations

Top Destinations
Airport Flights
per week
Seats
per week
  Truckee (TKF) 0 - 0 0
  Phoenix (PHX) 0 - 0 0
  Show Low (SOW) 0 - 0 0

Airlines & Planes

Top Airlines
Airline Flights
per Day
Seats
per Day
  Ameriflight 0 -
  Flybe Nordic 0 -
Top Plane Types
Model Flights Seats
Beech C-99 Airliner 0.1/day - 0

Scheduled Departures at Payson Airport

←All Airport Details

 Show Arrivals


Flights
No further flights found, please select another date